Flight Track Log - Related Links

Times and Time Zones

All times are in EDT time to prevent confusion due to time zone crossing. See the FLG3693 flight status page for this flight to view local times or setup timezone preferences in your user account.

Time Position Orientation Groundspeed Altitude Reporting Facility
EDT Latitude Longitude Course Direction KTS MPH feet Rate Location/Type
Wed 11:36:21 AM 39.0500 -84.6833 297° West 135 155 1,500  Level Cincinnati TRACON
Wed 11:37:03 AM 39.0500 -84.7167 270° West 154 177 2,500 2,167 Climbing Cincinnati TRACON
Wed 11:38:09 AM 39.0500 -84.8167 270° West 242 278 5,400 3,000 Climbing Cincinnati TRACON
Wed 11:39:00 AM 38.9773 -84.8842 312° West  Level FlightAware Approximate
Wed 11:39:03 AM 39.0500 -84.8833 270° West 238 274 8,500  Level Cincinnati TRACON
Wed 11:39:20 AM 39.0461 -84.9106 260° West 236 272 9,100 1,823 Climbing Indianapolis Center
Wed 11:40:00 AM 39.0390 -84.9752 311° West  Level FlightAware Approximate
Wed 11:40:22 AM 39.0625 -84.9994 283° West 265 305 10,900  Level Indianapolis Center
Wed 11:41:00 AM 39.0902 -85.0755 297° West  Level FlightAware Approximate
Wed 11:41:23 AM 39.0978 -85.0997 294° West 304 350 12,800  Level Indianapolis Center
Wed 11:42:25 AM 39.1375 -85.2072 296° West 329 379 13,700 1,306 Climbing Indianapolis Center
Wed 11:43:27 AM 39.1772 -85.3192 295° West 341 392 15,500 1,707 Climbing Indianapolis Center
Wed 11:44:28 AM 39.1853 -85.4369 275° West 325 374 17,200 1,707 Climbing Indianapolis Center
Wed 11:45:30 AM 39.1961 -85.5494 277° West 316 364 19,000 1,742 Climbing Indianapolis Center
Wed 11:46:32 AM 39.2058 -85.6606 276° West 310 357 20,800 1,935 Climbing Indianapolis Center
Wed 11:47:34 AM 39.2175 -85.7853 277° West 299 344 23,000 1,707 Climbing Indianapolis Center
Wed 11:48:35 AM 39.2261 -85.8900 276° West 293 337 24,300 1,171 Climbing Indianapolis Center
Wed 11:49:37 AM 39.2358 -85.9983 277° West 300 345 25,400 823 Climbing Indianapolis Center
Wed 11:50:39 AM 39.2442 -86.1081 276° West 304 350 26,000 293 Climbing Indianapolis Center
Wed 11:51:40 AM 39.2542 -86.2278 276° West 328 377 26,000  Level Indianapolis Center
Wed 11:52:42 AM 39.2647 -86.3533 276° West 346 398 26,000  Level Indianapolis Center
Wed 11:53:44 AM 39.2756 -86.4856 276° West 362 417 26,000  Level Indianapolis Center
Wed 11:54:46 AM 39.2858 -86.6169 276° West 365 420 26,000  Level Indianapolis Center
Wed 11:55:47 AM 39.2967 -86.7506 276° West 370 426 26,000  Level Indianapolis Center
Wed 11:56:49 AM 39.3072 -86.8833 276° West 370 426 26,000  Level Indianapolis Center
Wed 11:57:51 AM 39.3197 -87.0375 276° West 369 425 26,000  Level Indianapolis Center
Wed 11:58:53 AM 39.3289 -87.1647 275° West 357 411 26,000  Level Indianapolis Center
Wed 11:59:54 AM 39.3381 -87.2875 276° West 344 396 26,000  Level Indianapolis Center
Wed 12:00:56 PM 39.3467 -87.4142 275° West 350 403 26,000  Level Indianapolis Center
Wed 12:01:58 PM 39.3553 -87.5425 275° West 356 410 26,000  Level Indianapolis Center
Wed 12:03:00 PM 39.3647 -87.6697 276° West 364 419 26,000  Level Indianapolis Center
Wed 12:04:01 PM 39.3744 -87.8036 275° West 362 417 26,000  Level Indianapolis Center
Wed 12:04:57 PM 39.3847 -87.9264 276° West 361 415 26,000 -667 Level Kansas City Center
Wed 12:05:58 PM 39.3889 -88.0506 273° West 355 409 24,700 -968 Descending Kansas City Center
Wed 12:07:01 PM 39.3636 -88.1586 253° West 325 374 24,000 -341 Descending Kansas City Center
Wed 12:08:01 PM 39.3353 -88.2658 251° West 316 364 24,000  Level Kansas City Center
Wed 12:09:04 PM 39.3083 -88.3769 253° West 318 366 24,000  Level Kansas City Center
Wed 12:10:06 PM 39.2761 -88.4953 251° West 328 377 24,000  Level Kansas City Center
Wed 12:11:10 PM 39.2336 -88.6406 249° West 342 394 24,000  Level Kansas City Center
Wed 12:12:12 PM 39.2047 -88.7475 251° West 328 377 24,000  Level Kansas City Center
Wed 12:13:11 PM 39.1764 -88.8486 250° West 312 359 24,000  Level Kansas City Center
Wed 12:14:14 PM 39.1489 -88.9500 251° West 304 350 24,000  Level Kansas City Center
Wed 12:15:18 PM 39.1225 -89.0517 252° West 302 348 24,000 -144 Level Kansas City Center
Wed 12:16:19 PM 39.0956 -89.1533 251° West 301 346 23,700 -1,237 Descending Kansas City Center
Wed 12:16:55 PM 39.0775 -89.1786 227° Southwest 311 358 22,000 -2,618 Descending FAA TRACON SMA TRACON (SMA)
Wed 12:17:14 PM 39.0686 -89.2094 250° West 302 348 21,300 -2,308 Descending FAA TRACON SMA TRACON (SMA)
Wed 12:17:34 PM 39.0606 -89.2483 255° West 294 338 20,500 -2,250 Descending FAA TRACON SMA TRACON (SMA)
Wed 12:17:54 PM 39.0522 -89.2778 250° West 287 330 19,800 -1,902 Descending FAA TRACON SMA TRACON (SMA)
Wed 12:18:15 PM 39.0447 -89.3081 252° West 288 331 19,200 -2,049 Descending FAA TRACON SMA TRACON (SMA)
Wed 12:18:35 PM 39.0372 -89.3475 256° West 294 338 18,400 -2,250 Descending FAA TRACON SMA TRACON (SMA)
Wed 12:18:55 PM 39.0292 -89.3792 252° West 298 343 17,700 -2,154 Descending FAA TRACON SMA TRACON (SMA)
Wed 12:19:14 PM 39.0225 -89.4106 255° West 297 342 17,000 -2,615 Descending FAA TRACON SMA TRACON (SMA)
Wed 12:19:34 PM 39.0125 -89.4483 251° West 294 338 16,000 -2,780 Descending FAA TRACON SMA TRACON (SMA)
Wed 12:19:55 PM 39.0067 -89.4797 257° West 291 335 15,100 -2,488 Descending FAA TRACON SMA TRACON (SMA)
Wed 12:20:15 PM 38.9997 -89.5097 253° West 288 331 14,300 -2,850 Descending FAA TRACON SMA TRACON (SMA)
Wed 12:20:35 PM 38.9825 -89.5439 237° Southwest 294 338 13,200 -3,077 Descending FAA TRACON SMA TRACON (SMA)
Wed 12:20:54 PM 38.9675 -89.5694 233° Southwest 295 339 12,300 -2,923 Descending FAA TRACON SMA TRACON (SMA)
Wed 12:21:14 PM 38.9486 -89.5928 224° Southwest 303 349 11,300 -3,073 Descending FAA TRACON SMA TRACON (SMA)
Wed 12:21:35 PM 38.9272 -89.6222 227° Southwest 299 344 10,200 -2,488 Descending FAA TRACON SMA TRACON (SMA)
Wed 12:21:55 PM 38.9136 -89.6461 234° Southwest 279 321 9,600 -1,846 Descending FAA TRACON SMA TRACON (SMA)
Wed 12:22:14 PM 38.9019 -89.6700 238° Southwest 263 303 9,000 -2,154 Descending FAA TRACON SMA TRACON (SMA)
Wed 12:22:34 PM 38.8842 -89.6986 231° Southwest 260 299 8,200 -1,800 Descending FAA TRACON SMA TRACON (SMA)
Wed 12:22:54 PM 38.8736 -89.7225 240° Southwest 255 293 7,800 -1,317 Descending FAA TRACON SMA TRACON (SMA)
Wed 12:23:15 PM 38.8603 -89.7461 234° Southwest 261 300 7,300 -1,200 Descending FAA TRACON SMA TRACON (SMA)
Wed 12:23:34 PM 38.8450 -89.7761 237° Southwest 261 300 7,000 -462 Descending FAA TRACON SMA TRACON (SMA)
Wed 12:23:54 PM 38.8322 -89.8003 236° Southwest 264 304 7,000  Level FAA TRACON SMA TRACON (SMA)
Wed 12:24:14 PM 38.8189 -89.8242 234° Southwest 268 308 7,000  Level FAA TRACON SMA TRACON (SMA)
Wed 12:24:35 PM 38.8031 -89.8539 236° Southwest 266 306 7,000  Level FAA TRACON SMA TRACON (SMA)
Wed 12:24:55 PM 38.7906 -89.8772 236° Southwest 259 298 7,000  Level FAA TRACON SMA TRACON (SMA)
Wed 12:25:14 PM 38.7775 -89.9006 234° Southwest 258 297 7,000 -154 Level FAA TRACON SMA TRACON (SMA)
Wed 12:25:34 PM 38.7619 -89.9300 236° Southwest 263 303 6,900 -600 Descending FAA TRACON SMA TRACON (SMA)
Wed 12:25:54 PM 38.7500 -89.9536 237° Southwest 260 299 6,600 -1,024 Descending FAA TRACON SMA TRACON (SMA)
Wed 12:26:15 PM 38.7367 -89.9769 234° Southwest 262 302 6,200 -1,317 Descending FAA TRACON SMA TRACON (SMA)
Wed 12:26:35 PM 38.7206 -90.0064 235° Southwest 264 304 5,700 -1,500 Descending FAA TRACON SMA TRACON (SMA)
Wed 12:26:55 PM 38.7069 -90.0308 234° Southwest 266 306 5,200 -1,500 Descending FAA TRACON SMA TRACON (SMA)
Wed 12:27:15 PM 38.6956 -90.0542 238° Southwest 260 299 4,700 -1,650 Descending FAA TRACON SMA TRACON (SMA)
Wed 12:27:35 PM 38.6803 -90.0822 235° Southwest 249 287 4,100 -1,650 Descending FAA TRACON SMA TRACON (SMA)
Wed 12:27:55 PM 38.6692 -90.1028 235° Southwest 235 270 3,600 -900 Descending FAA TRACON SMA TRACON (SMA)
Wed 12:28:15 PM 38.6600 -90.1228 240° Southwest 218 251 3,500 -300 Descending FAA TRACON SMA TRACON (SMA)

Login

Don't have an account? Register now (free) for customized features, flight alerts, and more!